Terminal Aerodrome Forecast
Issued by NWS Charleston, WV

Current Version | Previous Version | Graphics & Text | Print | Product List | Glossary On
Versions: 1 2 3 4 5 6 7 8 9 10 11 12 13 14 15 16 17 18 19 20 21 22 23 24 25 26 27 28
000
FTUS41 KRLX 301700
TAFCRW
TAF
KCRW 301728Z 3018/3118 21007G14KT P6SM SCT050
     FM310000 VRB03KT P6SM SCT050
     FM310200 21004KT P6SM BKN070
     FM310900 23005KT 5SM -SHRA BR OVC045
     FM311200 22004KT 3SM SHRA BR VCTS OVC030CB=

USA.gov is the U.S. government's official web portal to all federal, state and local government web resources and services.